Time;durP1;ratioP1;P1;durP2;ratioP2;P2;SDS_P1;SDS_P2;PMS_P1;PMS_P2;Temp;Humidity;BMP_temperature;BMP_pressure;BME280_temperature;BME280_humidity;BME280_pressure;Samples;Min_cycle;Max_cycle;Signal;HPM_P1;HPM_P2
2021/09/09 00:02:16;;;;;;;16.42;10.50;;;;;;;;;;1846318;76;20947;-69
2021/09/09 00:04:43;;;;;;;13.38;10.63;;;;;;;10.86;82.56;101348.70;1849621;77;20984;-70
2021/09/09 00:07:12;;;;;;;16.32;10.68;;;;;;;10.84;82.54;101349.45;1847801;77;21502;-70
2021/09/09 00:09:38;;;;;;;15.30;11.33;;;;;;;10.80;82.59;101352.33;1827322;77;21075;-69
2021/09/09 00:12:06;;;;;;;13.58;10.25;;;;;;;10.71;82.74;101347.88;1833677;77;21007;-70
2021/09/09 00:14:36;;;;;;;13.98;10.40;;;;;;;10.67;82.89;101356.62;1848998;76;21031;-68
2021/09/09 00:17:04;;;;;;;15.50;10.60;;;;;;;10.65;83.03;101348.82;1843907;77;21061;-70
2021/09/09 00:19:30;;;;;;;14.58;11.08;;;;;;;10.64;83.15;101351.75;1847118;76;21085;-68
2021/09/09 00:21:58;;;;;;;15.80;11.95;;;;;;;10.62;83.25;101355.17;1819481;76;21072;-69
2021/09/09 00:24:27;;;;;;;16.23;12.55;;;;;;;10.61;83.30;101353.02;1847977;77;20932;-69
2021/09/09 00:26:56;;;;;;;16.32;12.40;;;;;;;10.61;83.36;101356.23;1827226;77;21018;-69
2021/09/09 00:29:22;;;;;;;16.45;11.93;;;;;;;10.59;83.44;101348.96;1828888;77;20984;-69
2021/09/09 00:31:50;;;;;;;15.20;11.57;;;;;;;10.53;83.55;101346.73;1833392;77;21038;-68
2021/09/09 00:34:17;;;;;;;16.20;11.93;;;;;;;10.42;83.88;101347.03;1828328;76;21089;-69
2021/09/09 00:36:44;;;;;;;15.45;11.93;;;;;;;10.33;84.19;101351.11;1843562;76;21431;-69
2021/09/09 00:39:11;;;;;;;15.30;11.95;;;;;;;10.30;84.50;101350.28;1836881;77;20975;-70
2021/09/09 00:41:39;;;;;;;18.05;12.55;;;;;;;10.32;84.69;101352.17;1844811;77;21482;-69
2021/09/09 00:44:25;;;;;;;16.42;11.95;;;;;;;10.34;84.86;101342.08;1842544;76;21011;-70
2021/09/09 00:47:07;;;;;;;16.20;12.13;;;;;;;10.38;84.94;101351.23;1846074;77;21114;-70
2021/09/09 00:49:37;;;;;;;17.50;13.22;;;;;;;10.41;85.00;101350.76;1839523;76;20972;-69
2021/09/09 00:52:04;;;;;;;15.13;12.47;;;;;;;10.43;85.13;101354.02;1777072;79;21061;-71
2021/09/09 00:54:31;;;;;;;15.50;11.88;;;;;;;10.47;85.16;101355.16;1781367;78;21002;-69
2021/09/09 00:56:57;;;;;;;15.60;11.95;;;;;;;10.52;85.08;101357.11;1779904;79;21040;-68
2021/09/09 00:59:25;;;;;;;16.23;12.05;;;;;;;10.55;84.91;101355.30;1820423;76;22081;-70
2021/09/09 01:01:54;;;;;;;14.95;11.35;;;;;;;10.55;84.72;101353.97;1818383;77;21059;-70
2021/09/09 01:04:20;;;;;;;16.27;12.70;;;;;;;10.57;84.57;101355.89;1847508;77;21066;-68
2021/09/09 01:06:48;;;;;;;16.12;11.83;;;;;;;10.59;84.46;101358.31;1836962;76;20901;-69
2021/09/09 01:09:15;;;;;;;15.70;12.80;;;;;;;10.60;84.33;101350.08;1849525;77;21521;-69
2021/09/09 01:11:43;;;;;;;15.10;11.95;;;;;;;10.61;84.18;101351.69;1839015;77;21069;-69
2021/09/09 01:14:14;;;;;;;16.40;12.23;;;;;;;10.61;84.02;101348.21;1844894;76;20968;-69
2021/09/09 01:16:41;;;;;;;16.12;12.40;;;;;;;10.61;83.87;101348.21;1835049;77;21015;-69
2021/09/09 01:19:09;;;;;;;16.62;12.35;;;;;;;10.62;83.69;101349.83;1831752;77;21082;-69
2021/09/09 01:21:37;;;;;;;18.30;13.00;;;;;;;10.62;83.55;101351.16;1842608;77;21438;-69
2021/09/09 01:24:12;;;;;;;20.20;13.75;;;;;;;10.61;83.43;101348.21;1838915;76;21961;-69
2021/09/09 01:27:00;;;;;;;19.35;15.08;;;;;;;10.60;83.32;101347.41;1830714;77;20860;-69
2021/09/09 01:29:31;;;;;;;22.82;16.82;;;;;;;10.60;83.16;101347.94;1817712;77;21545;-69
2021/09/09 01:31:58;;;;;;;;;;;;;;;10.56;83.09;101347.56;1835094;77;21027;-69
2021/09/09 01:34:25;;;;;;;23.20;16.93;;;;;;;10.54;83.03;101345.15;1833376;77;20169;-70
2021/09/09 01:36:52;;;;;;;21.97;16.12;;;;;;;10.53;83.04;101347.55;1838229;76;21545;-69
2021/09/09 01:39:21;;;;;;;20.35;16.23;;;;;;;10.53;83.07;101351.55;1831732;77;21026;-69
2021/09/09 01:41:54;;;;;;;20.97;16.57;;;;;;;10.53;83.05;101344.06;1822403;77;21597;-69
2021/09/09 01:44:21;;;;;;;21.77;15.80;;;;;;;10.51;83.08;101342.95;1849052;77;21058;-70
2021/09/09 01:46:50;;;;;;;19.98;16.10;;;;;;;10.53;83.04;101342.73;1838416;76;20927;-69
2021/09/09 01:49:18;;;;;;;21.93;16.35;;;;;;;10.53;82.96;101346.20;1816336;79;21173;-69
2021/09/09 01:51:45;;;;;;;21.55;15.68;;;;;;;10.51;82.98;101348.82;1816879;77;21031;-69
2021/09/09 01:54:13;;;;;;;19.48;14.93;;;;;;;10.52;83.01;101346.42;1827710;76;21058;-69
2021/09/09 01:56:40;;;;;;;17.67;14.13;;;;;;;10.52;83.01;101335.74;1821005;76;21184;-69
2021/09/09 01:59:07;;;;;;;18.82;14.58;;;;;;;10.54;82.93;101341.67;1828139;77;21027;-69
2021/09/09 02:01:35;;;;;;;19.40;14.75;;;;;;;10.53;82.87;101337.39;1820303;77;21959;-69
2021/09/09 02:04:03;;;;;;;18.60;13.88;;;;;;;10.51;82.80;101345.63;1845699;77;21058;-69
2021/09/09 02:06:30;;;;;;;17.45;13.98;;;;;;;10.50;82.77;101347.20;1837972;76;21015;-69
2021/09/09 02:08:57;;;;;;;18.85;13.80;;;;;;;10.49;82.83;101344.23;1842432;76;21093;-70
2021/09/09 02:11:24;;;;;;;17.82;13.50;;;;;;;10.48;82.86;101347.42;1811841;77;21007;-70
2021/09/09 02:13:52;;;;;;;16.80;13.48;;;;;;;10.45;82.78;101345.76;1830822;77;21128;-70
2021/09/09 02:16:21;;;;;;;17.00;12.85;;;;;;;10.39;82.79;101344.03;1842213;76;21046;-70
2021/09/09 02:18:49;;;;;;;16.40;12.80;;;;;;;10.37;82.86;101340.80;1833995;76;21042;-70
2021/09/09 02:21:16;;;;;;;17.67;12.55;;;;;;;10.36;82.81;101343.97;1830181;77;20991;-70
2021/09/09 02:23:46;;;;;;;15.20;11.75;;;;;;;10.28;82.79;101339.01;1847285;77;21046;-70
2021/09/09 02:26:16;;;;;;;15.78;12.53;;;;;;;10.24;82.82;101332.49;1843489;76;21190;-69
2021/09/09 02:28:44;;;;;;;17.30;13.40;;;;;;;10.12;82.89;101341.03;1845153;77;20987;-69
2021/09/09 02:31:12;;;;;;;18.05;13.70;;;;;;;9.97;83.11;101335.66;1835521;76;21050;-69
2021/09/09 02:33:40;;;;;;;17.57;14.33;;;;;;;9.90;83.31;101339.48;1821395;77;21058;-69
2021/09/09 02:36:07;;;;;;;17.02;14.00;;;;;;;9.84;83.47;101338.58;1836809;76;21030;-69
2021/09/09 02:38:33;;;;;;;19.52;15.40;;;;;;;9.77;83.64;101333.36;1841056;77;21480;-69
2021/09/09 02:41:01;;;;;;;19.67;15.50;;;;;;;9.68;83.85;101334.74;1833613;77;21027;-69
2021/09/09 02:43:28;;;;;;;21.37;16.62;;;;;;;9.62;84.08;101331.66;1849545;76;21407;-69
2021/09/09 02:45:55;;;;;;;21.50;15.63;;;;;;;9.58;84.50;101339.31;1841275;76;20964;-69
2021/09/09 02:48:22;;;;;;;22.75;15.65;;;;;;;9.61;84.74;101336.19;1845340;77;21047;-69
2021/09/09 02:50:49;;;;;;;19.20;15.40;;;;;;;9.67;84.83;101334.96;1817501;77;21114;-69
2021/09/09 02:53:15;;;;;;;18.37;15.45;;;;;;;9.65;84.83;101341.87;1868106;76;20976;-69
2021/09/09 02:55:42;;;;;;;19.90;14.85;;;;;;;9.62;84.96;101337.80;1830929;76;21066;-69
2021/09/09 02:58:11;;;;;;;18.80;15.23;;;;;;;9.60;85.12;101339.08;1835313;76;21007;-69
2021/09/09 03:00:37;;;;;;;20.37;15.55;;;;;;;9.61;85.36;101336.72;1820792;77;21028;-69
2021/09/09 03:03:04;;;;;;;22.00;15.70;;;;;;;9.65;85.42;101342.40;1847098;77;21781;-69
2021/09/09 03:05:30;;;;;;;18.15;15.20;;;;;;;9.65;85.46;101343.73;1833946;76;21026;-69
2021/09/09 03:07:57;;;;;;;21.50;15.88;;;;;;;9.62;85.58;101345.81;1841199;76;21450;-70
2021/09/09 03:10:24;;;;;;;21.02;16.05;;;;;;;9.64;85.71;101342.92;1837170;77;20980;-69
2021/09/09 03:12:51;;;;;;;20.30;15.93;;;;;;;9.69;85.86;101341.69;1845809;76;20975;-69
2021/09/09 03:15:19;;;;;;;19.62;16.12;;;;;;;9.78;85.91;101342.17;1840126;77;20915;-69
2021/09/09 03:17:46;;;;;;;23.98;16.57;;;;;;;9.83;85.87;101340.94;1837807;77;21514;-69
2021/09/09 03:20:14;;;;;;;22.10;16.95;;;;;;;9.86;85.82;101339.14;1845383;77;21077;-70
2021/09/09 03:22:41;;;;;;;21.48;15.32;;;;;;;9.91;85.79;101338.45;1833994;76;21097;-69
2021/09/09 03:25:09;;;;;;;24.40;16.20;;;;;;;9.94;85.70;101338.80;1833320;77;20997;-69
2021/09/09 03:27:36;;;;;;;20.15;16.12;;;;;;;9.95;85.55;101335.08;1836741;76;21796;-69
2021/09/09 03:30:04;;;;;;;23.47;16.60;;;;;;;9.95;85.55;101339.61;1846674;77;21015;-69
2021/09/09 03:32:31;;;;;;;22.80;16.30;;;;;;;9.94;85.61;101338.80;1844882;76;21011;-70
2021/09/09 03:34:58;;;;;;;19.87;15.78;;;;;;;9.95;85.62;101344.42;1847049;77;21106;-70
2021/09/09 03:37:27;;;;;;;19.82;16.67;;;;;;;9.98;85.62;101343.95;1841292;76;21066;-70
2021/09/09 03:39:54;;;;;;;20.30;15.90;;;;;;;10.00;85.61;101348.55;1835540;76;21081;-70
2021/09/09 03:42:20;;;;;;;21.87;16.25;;;;;;;10.02;85.66;101351.78;1830217;77;22070;-70
2021/09/09 03:44:48;;;;;;;20.85;16.32;;;;;;;10.06;85.63;101351.59;1787091;78;21013;-70
2021/09/09 03:47:15;;;;;;;19.35;15.98;;;;;;;10.11;85.59;101356.25;1788696;78;21128;-70
2021/09/09 03:49:43;;;;;;;21.25;17.07;;;;;;;10.15;85.46;101365.41;1792279;78;21477;-71
2021/09/09 03:52:09;;;;;;;21.12;16.55;;;;;;;10.20;85.42;101359.34;1836716;77;21798;-70
2021/09/09 03:54:36;;;;;;;19.87;16.27;;;;;;;10.23;85.35;101363.73;1844087;76;21480;-69
2021/09/09 03:57:04;;;;;;;20.27;16.97;;;;;;;10.29;85.30;101360.65;1842975;77;20980;-69
2021/09/09 03:59:31;;;;;;;21.35;17.20;;;;;;;10.31;85.23;101366.05;1842520;76;20975;-69
2021/09/09 04:01:59;;;;;;;21.33;16.70;;;;;;;10.38;85.20;101359.77;1828224;76;21030;-70
2021/09/09 04:04:26;;;;;;;23.95;16.77;;;;;;;10.45;85.16;101361.25;1831632;77;21578;-69
2021/09/09 04:06:53;;;;;;;19.87;15.58;;;;;;;10.52;85.06;101366.45;1830036;77;21039;-70
2021/09/09 04:09:20;;;;;;;18.52;15.60;;;;;;;10.60;84.96;101359.95;1840264;77;20947;-70
2021/09/09 04:11:47;;;;;;;20.75;15.78;;;;;;;10.64;84.87;101361.09;1841345;76;21572;-69
2021/09/09 04:14:14;;;;;;;19.02;15.60;;;;;;;10.70;84.75;101358.28;1832131;77;21501;-70
2021/09/09 04:16:40;;;;;;;18.17;15.60;;;;;;;10.75;84.65;101358.89;1835214;77;21165;-70
2021/09/09 04:19:07;;;;;;;19.52;15.80;;;;;;;10.83;84.65;101353.72;1835373;77;21569;-70
2021/09/09 04:21:37;;;;;;;19.98;16.35;;;;;;;10.91;84.61;101357.33;1836293;77;21557;-70
2021/09/09 04:24:05;;;;;;;18.32;16.07;;;;;;;10.96;84.59;101352.09;1824485;77;21493;-70
2021/09/09 04:26:31;;;;;;;21.70;15.72;;;;;;;11.16;84.20;101350.30;1831298;76;21007;-69
2021/09/09 04:28:58;;;;;;;18.67;15.53;;;;;;;11.15;84.50;101352.67;1841950;77;21567;-70
2021/09/09 04:31:26;;;;;;;18.10;15.45;;;;;;;11.24;84.51;101349.89;1830870;76;20971;-70
2021/09/09 04:33:53;;;;;;;18.85;15.53;;;;;;;11.33;84.47;101347.11;1822517;77;21051;-69
2021/09/09 04:36:21;;;;;;;20.20;15.25;;;;;;;11.44;84.46;101346.73;1826632;76;21019;-70
2021/09/09 04:38:47;;;;;;;20.90;15.90;;;;;;;11.92;83.87;101342.15;1832109;77;21577;-70
2021/09/09 04:41:15;;;;;;;18.98;15.30;;;;;;;12.78;81.33;101342.92;1820025;76;21101;-69
2021/09/09 04:43:41;;;;;;;19.03;15.73;;;;;;;13.13;80.09;101343.02;1830820;76;20987;-71
2021/09/09 04:46:08;;;;;;;19.20;15.90;;;;;;;12.55;81.00;101344.55;1838847;77;21231;-70
2021/09/09 04:48:36;;;;;;;20.80;15.83;;;;;;;12.20;82.54;101343.05;1816422;76;21705;-70
2021/09/09 04:51:02;;;;;;;18.93;16.17;;;;;;;12.24;83.00;101336.16;1803432;77;21460;-70
2021/09/09 04:53:29;;;;;;;19.43;16.70;;;;;;;12.35;83.23;101345.13;1823522;77;21888;-70
2021/09/09 04:55:56;;;;;;;20.07;16.50;;;;;;;12.46;83.33;101338.81;1837281;76;21222;-70
2021/09/09 04:58:22;;;;;;;20.57;16.93;;;;;;;12.58;83.45;101344.05;1821882;77;21188;-70
2021/09/09 05:00:49;;;;;;;21.43;17.83;;;;;;;12.69;83.59;101340.41;1825884;77;21231;-70
2021/09/09 05:03:16;;;;;;;21.30;17.40;;;;;;;12.83;83.62;101336.80;1847999;77;21726;-70
2021/09/09 05:05:42;;;;;;;21.87;17.30;;;;;;;12.99;83.63;101337.77;1814327;77;21932;-70
2021/09/09 05:08:10;;;;;;;20.93;17.23;;;;;;;13.13;83.70;101332.28;1844030;77;21288;-70
2021/09/09 05:10:36;;;;;;;22.50;18.23;;;;;;;13.29;83.65;101331.88;1844263;77;21324;-70
2021/09/09 05:13:04;;;;;;;22.40;18.03;;;;;;;13.44;83.56;101332.55;1821078;77;21315;-70
2021/09/09 05:15:32;;;;;;;22.10;18.47;;;;;;;13.59;83.43;101326.77;1821742;77;21332;-70
2021/09/09 05:17:59;;;;;;;26.27;18.77;;;;;;;13.77;83.35;101336.27;1831523;77;21466;-70
2021/09/09 05:20:25;;;;;;;24.27;19.20;;;;;;;13.92;83.18;101331.55;1834926;76;21266;-70
2021/09/09 05:22:52;;;;;;;27.17;20.27;;;;;;;14.06;83.00;101334.56;1840595;77;21350;-70
2021/09/09 05:25:19;;;;;;;27.23;20.70;;;;;;;14.19;82.66;101326.56;1834516;76;21259;-70
2021/09/09 05:27:46;;;;;;;26.10;20.53;;;;;;;14.29;82.05;101333.33;1838489;77;21668;-70
2021/09/09 05:30:14;;;;;;;23.77;19.50;;;;;;;14.37;81.34;101331.46;1825506;76;21354;-69
2021/09/09 05:32:41;;;;;;;28.37;19.23;;;;;;;14.45;80.28;101326.13;1780780;78;21294;-69
2021/09/09 05:35:09;;;;;;;21.33;17.53;;;;;;;14.54;78.02;101322.70;1778859;78;21413;-70
2021/09/09 05:37:37;;;;;;;21.53;17.50;;;;;;;14.60;77.66;101322.16;1797245;78;21415;-69
2021/09/09 05:40:05;;;;;;;22.70;17.67;;;;;;;14.66;76.48;101322.45;1800628;78;21929;-70
2021/09/09 05:42:31;;;;;;;26.40;18.20;;;;;;;14.71;76.43;101319.78;1787723;78;22559;-70
2021/09/09 05:44:59;;;;;;;22.17;17.20;;;;;;;14.71;76.43;101319.78;1787389;78;21470;-70
2021/09/09 05:47:26;;;;;;;22.13;17.33;;;;;;;14.84;74.98;101313.09;1789636;78;21570;-70
2021/09/09 05:49:53;;;;;;;20.83;16.77;;;;;;;14.84;74.98;101313.09;1783552;78;22029;-70
2021/09/09 05:52:21;;;;;;;24.03;18.23;;;;;;;14.93;74.43;101316.84;1791087;78;21794;-70
2021/09/09 05:54:58;;;;;;;23.67;17.37;;;;;;;15.03;74.27;101317.93;1789596;79;21586;-69
2021/09/09 05:57:31;;;;;;;21.57;17.13;;;;;;;15.16;74.29;101321.44;1800364;78;21756;-70
2021/09/09 05:59:58;;;;;;;25.17;17.77;;;;;;;15.45;73.45;101314.97;1805979;78;21600;-70
2021/09/09 06:02:27;;;;;;;20.40;15.57;;;;;;;15.45;73.45;101314.97;1803275;78;21673;-70
2021/09/09 06:04:55;;;;;;;21.97;17.17;;;;;;;15.55;71.93;101310.11;1808449;78;22331;-70
2021/09/09 06:07:24;;;;;;;22.60;16.97;;;;;;;15.60;71.83;101311.47;1787194;79;21681;-69
2021/09/09 06:09:51;;;;;;;24.47;18.37;;;;;;;15.70;71.70;101314.97;1836969;77;21685;-69
2021/09/09 06:12:19;;;;;;;24.47;17.50;;;;;;;15.81;71.31;101312.25;1837918;77;21734;-69
2021/09/09 06:14:46;;;;;;;23.37;17.23;;;;;;;15.91;70.68;101304.14;1817998;76;21710;-69
2021/09/09 06:17:13;;;;;;;22.40;16.93;;;;;;;16.03;70.35;101307.88;1771455;81;21717;-69
2021/09/09 06:19:40;;;;;;;20.57;16.33;;;;;;;16.15;70.01;101308.36;1792587;79;21824;-69
2021/09/09 06:22:07;;;;;;;23.20;15.63;;;;;;;16.21;68.89;101307.80;1781948;78;21772;-70
2021/09/09 06:24:34;;;;;;;20.33;16.67;;;;;;;16.28;68.64;101303.72;1815648;77;21671;-69
2021/09/09 06:27:01;;;;;;;21.07;15.93;;;;;;;16.28;68.64;101303.72;1837491;77;21600;-70
2021/09/09 06:29:27;;;;;;;17.40;13.70;;;;;;;16.36;68.64;101303.70;1848552;77;20983;-70
2021/09/09 06:31:53;;;;;;;20.30;15.50;;;;;;;16.47;68.18;101307.95;1840630;76;21649;-69
2021/09/09 06:34:21;;;;;;;20.60;15.40;;;;;;;16.54;67.27;101300.34;1818602;77;21011;-70
2021/09/09 06:36:48;;;;;;;19.57;14.57;;;;;;;16.62;67.13;101303.02;1840762;77;20988;-70
2021/09/09 06:39:15;;;;;;;22.13;16.20;;;;;;;16.74;67.39;101310.75;1843574;77;21010;-70
2021/09/09 06:41:45;;;;;;;20.53;16.27;;;;;;;16.89;67.35;101306.64;1828877;77;21107;-70
2021/09/09 06:44:13;;;;;;;21.37;14.33;;;;;;;17.05;67.07;101305.99;1835415;76;21086;-74
2021/09/09 06:46:41;;;;;;;23.93;16.03;;;;;;;17.22;66.63;101310.98;1828064;76;21003;-75
2021/09/09 06:49:10;;;;;;;22.20;16.37;;;;;;;17.37;66.51;101312.18;1829588;77;21023;-73
2021/09/09 06:51:37;;;;;;;23.23;15.07;;;;;;;17.49;66.06;101308.56;1828521;77;37902;-74
2021/09/09 06:54:04;;;;;;;18.20;13.53;;;;;;;17.66;65.62;101306.77;1821547;77;21486;-74
2021/09/09 06:56:31;;;;;;;19.23;14.30;;;;;;;17.81;64.75;101316.11;1829758;76;21111;-76
2021/09/09 06:59:00;;;;;;;20.07;14.27;;;;;;;17.93;63.93;101313.02;1836024;76;21038;-76
2021/09/09 07:01:27;;;;;;;19.53;13.63;;;;;;;18.04;63.80;101319.11;1828908;77;21018;-75
2021/09/09 07:03:53;;;;;;;18.23;13.93;;;;;;;18.18;63.28;101320.55;1836747;77;21081;-77
2021/09/09 07:06:20;;;;;;;19.87;13.70;;;;;;;18.32;62.87;101320.65;1839912;76;21036;-77
2021/09/09 07:08:46;;;;;;;19.17;13.57;;;;;;;18.44;62.43;101324.55;1839628;77;21102;-77
2021/09/09 07:11:15;;;;;;;16.43;13.03;;;;;;;18.56;61.97;101325.48;1832527;76;21554;-76
2021/09/09 07:13:42;;;;;;;18.40;13.90;;;;;;;18.68;61.50;101323.67;1830674;77;21039;-77
2021/09/09 07:16:08;;;;;;;21.07;14.40;;;;;;;18.79;60.88;101324.35;1830364;76;21899;-77
2021/09/09 07:18:36;;;;;;;18.67;14.50;;;;;;;18.88;60.26;101321.25;1837610;77;21504;-75
2021/09/09 07:21:03;;;;;;;17.60;13.40;;;;;;;18.96;59.77;101321.39;1837107;77;21146;-77
2021/09/09 07:23:29;;;;;;;17.13;12.87;;;;;;;19.06;59.29;101321.78;1836134;77;21043;-75
2021/09/09 07:25:56;;;;;;;18.77;13.00;;;;;;;19.15;59.53;101320.54;1831806;77;21051;-77
2021/09/09 07:28:25;;;;;;;17.40;13.17;;;;;;;19.27;59.42;101322.80;1772634;79;21081;-76
2021/09/09 07:30:53;;;;;;;17.03;12.97;;;;;;;19.39;59.07;101321.78;1785318;78;21014;-76
2021/09/09 07:33:20;;;;;;;15.87;12.37;;;;;;;19.48;58.50;101323.24;1802288;77;22155;-74
2021/09/09 07:35:46;;;;;;;18.50;12.67;;;;;;;19.59;57.61;101325.48;1837328;77;21016;-76
2021/09/09 07:38:13;;;;;;;17.03;12.83;;;;;;;19.63;57.49;101328.40;1840633;77;21078;-76
2021/09/09 07:40:40;;;;;;;19.03;12.53;;;;;;;19.70;57.34;101326.13;1847807;77;21093;-76
2021/09/09 07:43:09;;;;;;;15.83;11.97;;;;;;;19.78;57.32;101321.94;1843536;76;20988;-74
2021/09/09 07:45:36;;;;;;;15.83;12.33;;;;;;;19.91;56.97;101322.49;1839818;77;21862;-76
2021/09/09 07:48:03;;;;;;;17.53;13.10;;;;;;;20.03;57.04;101323.33;1837934;76;21034;-74
2021/09/09 07:50:31;;;;;;;16.63;12.13;;;;;;;20.14;56.47;101322.83;1839174;77;20947;-76
2021/09/09 07:52:58;;;;;;;16.00;12.30;;;;;;;20.29;56.46;101324.41;1836065;77;21558;-76
2021/09/09 07:55:25;;;;;;;17.50;11.83;;;;;;;20.43;56.36;101320.88;1842525;77;21076;-75
2021/09/09 07:57:51;;;;;;;13.57;10.87;;;;;;;20.53;55.47;101322.86;1835002;76;21099;-75
2021/09/09 08:00:18;;;;;;;16.47;12.07;;;;;;;20.67;55.40;101320.10;1825947;77;21040;-74
2021/09/09 08:02:45;;;;;;;17.77;12.07;;;;;;;20.80;55.05;101319.25;1832270;76;20995;-75
2021/09/09 08:05:12;;;;;;;16.40;11.97;;;;;;;20.94;54.71;101323.83;1848620;77;21632;-77
2021/09/09 08:07:45;;;;;;;15.43;11.57;;;;;;;21.01;53.87;101316.05;1843907;76;21720;-75
2021/09/09 08:10:16;;;;;;;15.37;11.27;;;;;;;21.08;53.32;101311.77;1848901;77;21192;-74
2021/09/09 08:12:45;;;;;;;16.90;11.77;;;;;;;21.17;52.57;101317.28;1846769;77;21003;-74
2021/09/09 08:15:12;;;;;;;17.90;11.00;;;;;;;21.24;52.02;101314.13;1840119;76;21085;-73
2021/09/09 08:17:39;;;;;;;15.37;10.27;;;;;;;21.31;52.13;101311.20;1835926;77;21062;-71
2021/09/09 08:20:10;;;;;;;14.73;10.37;;;;;;;21.40;51.91;101309.94;1828185;76;21027;-70
2021/09/09 08:22:41;;;;;;;12.23;9.28;;;;;;;21.54;52.00;101309.84;1829807;77;21065;-71
2021/09/09 08:25:10;;;;;;;14.03;9.53;;;;;;;21.68;51.39;101303.73;1817051;77;21058;-71
2021/09/09 08:27:38;;;;;;;13.00;9.53;;;;;;;21.81;50.43;101310.75;1839250;77;21054;-71
2021/09/09 08:30:08;;;;;;;13.30;9.33;;;;;;;21.93;50.48;101300.08;1829650;77;21027;-71
2021/09/09 08:32:34;;;;;;;14.07;10.00;;;;;;;22.03;49.27;101303.07;1827961;77;21145;-71
2021/09/09 08:35:02;;;;;;;11.37;9.63;;;;;;;22.12;49.42;101301.97;1829242;77;21110;-69
2021/09/09 08:37:29;;;;;;;15.13;10.20;;;;;;;22.24;49.10;101303.56;1827012;77;20979;-70
2021/09/09 08:39:56;;;;;;;15.53;10.50;;;;;;;22.35;48.57;101301.33;1814861;79;21027;-71
2021/09/09 08:42:22;;;;;;;13.53;10.30;;;;;;;22.43;47.93;101293.72;1817638;77;21572;-71
2021/09/09 08:44:49;;;;;;;13.33;9.00;;;;;;;22.51;47.78;101293.50;1808012;76;21093;-71
2021/09/09 08:47:16;;;;;;;11.70;9.60;;;;;;;22.58;47.65;101291.66;1798067;77;21114;-69
2021/09/09 08:49:44;;;;;;;11.23;9.10;;;;;;;22.68;46.28;101295.42;1832309;77;20948;-70
2021/09/09 08:52:11;;;;;;;13.20;9.97;;;;;;;22.70;45.90;101293.16;1839970;77;20985;-70
2021/09/09 08:54:38;;;;;;;26.30;9.90;;;;;;;22.76;45.89;101300.62;1829964;77;21001;-70
2021/09/09 08:57:06;;;;;;;13.47;9.87;;;;;;;22.79;45.09;101298.05;1814825;79;21613;-70
2021/09/09 08:59:34;;;;;;;12.30;8.93;;;;;;;22.84;44.96;101303.34;1836525;76;21104;-70
2021/09/09 09:02:09;;;;;;;14.87;9.77;;;;;;;22.93;44.46;101300.09;1841399;77;21066;-69
2021/09/09 09:04:37;;;;;;;10.03;8.40;;;;;;;22.99;43.87;101301.27;1842464;76;21010;-70
2021/09/09 09:07:09;;;;;;;11.50;9.20;;;;;;;23.04;44.34;101301.91;1842233;76;21011;-70
2021/09/09 09:09:37;;;;;;;9.90;8.27;;;;;;;23.09;43.89;101284.02;1847085;77;21082;-70
2021/09/09 09:12:06;;;;;;;13.03;8.83;;;;;;;23.16;43.06;101291.69;1818087;76;21101;-70
2021/09/09 09:14:35;;;;;;;13.35;9.20;;;;;;;23.18;42.97;101290.25;1800591;79;20993;-69
2021/09/09 09:17:05;;;;;;;11.80;8.60;;;;;;;23.20;43.18;101286.39;1806351;77;21015;-71
2021/09/09 09:19:38;;;;;;;13.77;8.93;;;;;;;23.27;43.59;101282.06;1832886;77;21585;-70
2021/09/09 09:22:11;;;;;;;10.17;8.57;;;;;;;23.37;43.30;101277.62;1836944;77;21010;-70
2021/09/09 09:24:46;;;;;;;10.83;8.87;;;;;;;23.46;41.61;101276.23;1833831;76;21285;-70
2021/09/09 09:27:15;;;;;;;12.50;9.07;;;;;;;23.47;41.58;101275.66;1817369;77;21577;-70
2021/09/09 09:30:07;;;;;;;11.12;8.65;;;;;;;23.48;43.17;101275.33;1826373;76;21022;-70
2021/09/09 09:32:34;;;;;;;11.07;8.83;;;;;;;23.58;43.33;101272.23;1846185;77;21082;-70
2021/09/09 09:35:19;;;;;;;11.63;9.13;;;;;;;23.69;42.26;101268.63;1834141;76;21004;-70
2021/09/09 09:37:55;;;;;;;12.73;8.67;;;;;;;23.75;41.20;101263.77;1836696;77;21122;-70
2021/09/09 09:40:32;;;;;;;11.20;9.07;;;;;;;23.78;41.47;101268.00;1833055;76;21005;-70
2021/09/09 09:43:03;;;;;;;14.17;8.97;;;;;;;23.84;41.72;101252.25;1843950;77;21023;-70
2021/09/09 09:45:32;;;;;;;10.80;8.63;;;;;;;23.92;41.52;101251.95;1820162;77;21608;-70
2021/09/09 09:47:58;;;;;;;11.00;8.17;;;;;;;23.98;41.90;101254.16;1823008;77;20991;-70
2021/09/09 09:50:26;;;;;;;9.87;8.30;;;;;;;24.06;41.28;101250.59;1835559;76;21140;-71
2021/09/09 09:53:17;;;;;;;11.43;9.00;;;;;;;24.14;40.91;101250.86;1830633;76;20998;-70
2021/09/09 09:55:46;;;;;;;10.40;8.93;;;;;;;24.19;40.75;101256.92;1828847;77;21509;-70
2021/09/09 09:58:13;;;;;;;11.77;8.27;;;;;;;24.24;40.11;101247.73;1837074;77;21723;-70
2021/09/09 10:00:40;;;;;;;13.37;9.30;;;;;;;24.23;40.52;101252.97;1816627;77;21074;-70
2021/09/09 10:03:07;;;;;;;11.87;8.60;;;;;;;24.24;39.59;101247.73;1814640;76;21176;-70
2021/09/09 10:05:37;;;;;;;10.57;8.33;;;;;;;24.22;40.43;101247.25;1843897;76;21066;-71
2021/09/09 10:08:05;;;;;;;11.00;8.20;;;;;;;24.26;40.50;101241.38;1847299;77;21413;-71
2021/09/09 10:10:32;;;;;;;12.00;9.07;;;;;;;24.28;39.99;101241.29;1865593;76;21533;-71
2021/09/09 10:12:58;;;;;;;11.40;9.47;;;;;;;24.34;40.70;101235.04;1835547;76;21070;-70
2021/09/09 10:15:25;;;;;;;9.80;7.97;;;;;;;24.40;40.19;101233.70;1834657;77;21906;-71
2021/09/09 10:17:53;;;;;;;11.20;8.97;;;;;;;24.48;39.97;101233.42;1839155;76;21163;-70
2021/09/09 10:20:32;;;;;;;16.23;9.20;;;;;;;24.56;40.29;101234.73;1816038;77;21067;-71
2021/09/09 10:23:14;;;;;;;12.63;9.60;;;;;;;24.62;39.33;101232.59;1821227;77;21073;-71
2021/09/09 10:25:54;;;;;;;11.17;9.20;;;;;;;24.63;38.85;101231.45;1824976;77;21026;-71
2021/09/09 10:28:43;;;;;;;12.27;8.80;;;;;;;24.65;39.31;101233.29;1829637;77;21886;-71
2021/09/09 10:31:13;;;;;;;12.23;9.10;;;;;;;24.69;39.21;101234.20;1820209;77;21011;-70
2021/09/09 10:33:46;;;;;;;10.75;8.88;;;;;;;24.70;38.58;101230.91;1846232;77;26921;-71
2021/09/09 10:36:45;;;;;;;11.37;8.77;;;;;;;24.67;38.75;101231.00;1843631;77;21118;-71
2021/09/09 10:39:35;;;;;;;10.13;8.90;;;;;;;24.65;38.14;101223.73;1828307;76;21143;-70
2021/09/09 10:42:38;;;;;;;10.38;8.50;;;;;;;24.65;38.45;101221.57;1833850;76;21499;-70
2021/09/09 10:45:08;;;;;;;9.63;8.20;;;;;;;24.66;38.81;101219.06;1777378;78;21038;-70
2021/09/09 10:47:50;;;;;;;10.83;8.03;;;;;;;24.66;39.28;101219.85;1749846;79;21114;-70
2021/09/09 10:50:20;;;;;;;10.83;8.80;;;;;;;24.71;39.25;101213.37;1799912;78;21082;-71
2021/09/09 10:53:05;;;;;;;11.57;9.15;;;;;;;24.74;38.54;101215.43;1763793;79;21130;-70
2021/09/09 10:55:34;;;;;;;11.73;9.00;;;;;;;24.76;38.53;101214.53;1771580;81;21234;-70
2021/09/09 10:58:24;;;;;;;11.27;8.37;;;;;;;24.76;39.09;101213.96;1775000;78;21010;-69
2021/09/09 11:01:01;;;;;;;12.77;8.57;;;;;;;24.79;39.25;101209.77;1801009;79;21527;-70
2021/09/09 11:03:49;;;;;;;10.67;8.47;;;;;;;24.83;38.90;101206.58;1828880;76;21557;-70
2021/09/09 11:06:21;;;;;;;10.20;8.87;;;;;;;24.86;38.74;101201.81;1838395;77;21062;-71
2021/09/09 11:08:54;;;;;;;9.63;8.37;;;;;;;24.87;37.89;101196.56;1843970;76;21154;-71
2021/09/09 11:11:27;;;;;;;13.23;8.73;;;;;;;24.78;38.58;101194.52;1827787;76;21073;-71
2021/09/09 11:14:04;;;;;;;10.33;8.40;;;;;;;24.78;38.46;101194.52;1845694;77;21023;-70
2021/09/09 11:16:37;;;;;;;9.60;8.17;;;;;;;24.83;37.87;101187.45;1820812;77;21561;-71
2021/09/09 11:19:07;;;;;;;9.10;8.10;;;;;;;24.91;38.32;101182.48;1832284;76;21041;-71
2021/09/09 11:21:44;;;;;;;10.03;8.40;;;;;;;25.01;38.34;101177.94;1789611;79;22119;-70